Time;durP1;ratioP1;P1;durP2;ratioP2;P2;SDS_P1;SDS_P2;PMS_P1;PMS_P2;Temp;Humidity;BMP_temperature;BMP_pressure;BME280_temperature;BME280_humidity;BME280_pressure;Samples;Min_cycle;Max_cycle;Signal;HPM_P1;HPM_P2
2022/10/05 00:00:18;;;;;;;8.00;6.27;;;15.80;69.50;;;18.39;52.10;101626.44;4917469;29;20274;-57
2022/10/05 00:02:46;;;;;;;8.80;6.30;;;15.80;69.50;;;18.39;52.23;101642.44;4917220;29;20608;-57
2022/10/05 00:05:24;;;;;;;6.90;6.20;;;15.80;69.70;;;18.39;52.21;101642.44;4914420;29;20267;-56
2022/10/05 00:07:55;;;;;;;8.50;6.97;;;15.80;69.70;;;18.43;52.06;101632.16;4904899;29;20191;-59
2022/10/05 00:10:23;;;;;;;7.23;6.53;;;15.80;70.50;;;18.45;52.05;101624.78;4898072;29;20195;-59
2022/10/05 00:12:52;;;;;;;9.43;6.63;;;15.80;69.80;;;18.47;52.04;101628.13;4898407;29;20628;-59
2022/10/05 00:15:21;;;;;;;7.07;6.23;;;15.80;69.70;;;18.49;51.77;101626.91;4898372;29;20202;-59
2022/10/05 00:17:49;;;;;;;9.40;6.53;;;15.80;69.70;;;18.50;52.20;101625.84;4898551;29;20203;-59
2022/10/05 00:20:21;;;;;;;10.90;6.50;;;15.80;69.70;;;18.47;52.13;101617.47;4899167;29;20223;-59
2022/10/05 00:22:56;;;;;;;9.90;6.80;;;15.90;69.90;;;18.43;52.24;101611.66;4917084;29;20214;-59
2022/10/05 00:25:24;;;;;;;7.97;6.30;;;15.90;69.90;;;18.45;52.17;101614.94;4912712;29;20679;-59
2022/10/05 00:27:56;;;;;;;8.07;6.20;;;15.90;70.00;;;18.46;52.31;101605.13;4898519;29;20234;-59
2022/10/05 00:30:31;;;;;;;6.97;6.00;;;15.90;70.00;;;18.46;52.37;101599.81;4893096;29;20199;-59
2022/10/05 00:32:58;;;;;;;9.40;6.10;;;15.80;70.00;;;18.46;52.31;101597.97;4897627;29;20225;-59
2022/10/05 00:35:28;;;;;;;10.20;6.77;;;15.90;70.20;;;18.44;52.36;101597.31;4898108;29;20203;-60
2022/10/05 00:37:55;;;;;;;9.30;6.47;;;15.80;70.20;;;18.44;52.55;101597.31;4898301;29;20207;-59
2022/10/05 00:40:39;;;;;;;8.73;6.47;;;15.80;70.20;;;18.40;52.41;101601.41;4886609;29;20230;-59
2022/10/05 00:43:31;;;;;;;8.77;6.57;;;15.90;70.40;;;18.35;52.63;101598.53;4898110;29;20790;-59
2022/10/05 00:46:07;;;;;;;7.63;6.37;;;15.90;70.50;;;18.37;52.71;101591.16;4897820;29;20219;-59
2022/10/05 00:48:52;;;;;;;7.13;6.43;;;15.80;70.40;;;18.37;52.72;101585.00;4898081;29;20246;-57
2022/10/05 00:51:25;;;;;;;8.00;6.13;;;15.80;70.50;;;18.38;52.76;101576.78;4897729;29;20199;-59
2022/10/05 00:54:16;;;;;;;7.93;6.60;;;15.80;70.50;;;18.32;53.00;101577.63;4897903;29;20219;-59
2022/10/05 00:57:20;;;;;;;6.90;6.20;;;15.80;70.70;;;18.26;53.24;101567.78;4911682;29;20205;-58
2022/10/05 01:00:02;;;;;;;7.60;6.80;;;15.90;70.80;;;18.31;53.26;101567.97;4907550;29;20226;-56
2022/10/05 01:02:47;;;;;;;8.37;6.93;;;15.90;70.80;;;18.36;53.05;101570.84;4916368;29;20214;-58
2022/10/05 01:05:39;;;;;;;7.30;6.33;;;15.90;71.00;;;18.39;52.95;101578.44;4913822;29;20233;-59
2022/10/05 01:08:22;;;;;;;8.83;6.23;;;15.90;71.70;;;18.40;53.08;101585.41;4899172;29;20207;-59
2022/10/05 01:11:03;;;;;;;12.23;7.27;;;15.90;71.00;;;18.39;53.15;101580.28;4898445;29;20191;-59
2022/10/05 01:13:43;;;;;;;6.97;6.27;;;15.90;71.10;;;18.40;53.22;101577.41;4899108;29;20206;-59
2022/10/05 01:16:21;;;;;;;8.60;6.37;;;15.90;71.10;;;18.41;53.20;101576.41;4899124;29;20242;-59
2022/10/05 01:19:00;;;;;;;11.67;6.87;;;15.90;71.00;;;18.40;53.18;101581.94;4880792;29;20235;-58
2022/10/05 01:21:37;;;;;;;8.87;7.30;;;15.90;71.10;;;18.42;53.25;101578.03;4880272;29;20196;-59
2022/10/05 01:24:43;;;;;;;8.73;6.33;;;15.90;71.10;;;18.36;53.43;101578.03;4880491;29;20224;-59
2022/10/05 01:27:38;;;;;;;8.53;6.40;;;15.90;71.30;;;18.41;53.31;101571.06;4896238;29;20266;-58
2022/10/05 01:30:12;;;;;;;9.40;6.57;;;15.90;71.20;;;18.46;53.22;101562.47;4897520;29;20211;-58
2022/10/05 01:32:49;;;;;;;8.83;6.87;;;15.90;71.30;;;18.44;53.40;101552.00;4896817;29;20226;-59
2022/10/05 01:35:40;;;;;;;9.33;6.43;;;15.90;71.30;;;18.46;53.25;101554.47;4897731;29;20247;-57
2022/10/05 01:38:34;;;;;;;7.50;6.33;;;15.90;71.30;;;18.43;53.34;101553.00;4897444;29;20646;-58
2022/10/05 01:41:18;;;;;;;8.37;6.90;;;15.90;71.30;;;18.44;53.57;101549.34;4886391;29;20593;-58
2022/10/05 01:43:54;;;;;;;11.10;6.63;;;15.90;71.40;;;18.48;53.10;101555.09;4897237;29;20685;-58
2022/10/05 01:46:34;;;;;;;7.67;6.73;;;15.90;71.40;;;18.45;53.28;101550.94;4897271;29;20195;-58
2022/10/05 01:49:34;;;;;;;7.83;7.00;;;15.90;71.50;;;18.42;53.57;101543.38;4897298;29;20176;-57
2022/10/05 01:52:21;;;;;;;9.03;6.60;;;15.90;71.70;;;18.45;53.55;101532.28;4896897;29;20601;-59
2022/10/05 01:55:08;;;;;;;10.33;6.40;;;15.90;71.70;;;18.46;53.61;101535.81;4900400;29;20194;-57
2022/10/05 01:58:00;;;;;;;6.97;6.20;;;15.90;71.70;;;18.45;53.51;101534.13;4882157;29;20236;-58
2022/10/05 02:00:31;;;;;;;7.13;6.43;;;15.90;71.80;;;18.40;53.71;101526.75;4881894;29;20200;-58
2022/10/05 02:03:10;;;;;;;7.43;6.73;;;15.90;71.90;;;18.36;53.96;101525.53;4881731;29;20252;-57
2022/10/05 02:05:47;;;;;;;9.73;7.00;;;15.90;72.10;;;18.31;54.14;101521.84;4887949;29;20191;-58
2022/10/05 02:08:22;;;;;;;10.40;7.40;;;15.90;72.30;;;18.30;54.26;101522.88;4900729;29;20195;-55
2022/10/05 02:10:58;;;;;;;10.07;6.47;;;15.80;72.30;;;18.25;54.47;101528.84;4900591;29;20214;-59
2022/10/05 02:13:34;;;;;;;8.47;7.23;;;15.80;72.50;;;18.26;54.46;101517.13;4906505;29;20222;-58
2022/10/05 02:16:09;;;;;;;8.10;7.27;;;15.80;72.60;;;18.26;54.49;101519.78;4919600;29;20194;-58
2022/10/05 02:18:47;;;;;;;7.67;6.70;;;15.80;72.70;;;18.29;54.25;101514.06;4919454;29;20246;-58
2022/10/05 02:21:16;;;;;;;8.20;6.93;;;15.80;72.70;;;18.33;54.36;101515.28;4919014;29;20187;-59
2022/10/05 02:23:47;;;;;;;9.60;6.43;;;15.80;72.90;;;18.30;54.48;101509.56;4919127;29;20246;-60
2022/10/05 02:26:17;;;;;;;8.73;7.40;;;15.80;73.10;;;18.29;54.59;101503.41;4911274;29;20223;-58
2022/10/05 02:28:51;;;;;;;8.93;7.20;;;15.80;73.00;;;18.26;54.66;101501.13;4910676;29;20198;-59
2022/10/05 02:31:25;;;;;;;8.47;7.10;;;15.80;73.10;;;18.24;54.68;101495.19;4909650;29;20199;-56
2022/10/05 02:34:26;;;;;;;8.97;6.87;;;15.80;73.10;;;18.20;54.96;101493.97;4903866;29;20234;-57
2022/10/05 02:37:19;;;;;;;8.13;6.50;;;15.80;73.30;;;18.25;54.72;101496.84;4905040;29;20203;-58
2022/10/05 02:40:11;;;;;;;12.53;7.27;;;15.80;73.20;;;18.27;54.73;101506.28;4890472;29;20247;-59
2022/10/05 02:42:54;;;;;;;14.33;7.30;;;15.80;73.30;;;18.31;54.72;101485.34;4881047;29;20276;-58
2022/10/05 02:45:36;;;;;;;8.60;6.87;;;15.90;73.40;;;18.34;54.77;101494.78;4881672;29;20184;-58
2022/10/05 02:48:14;;;;;;;7.93;6.73;;;15.80;73.40;;;18.39;54.71;101493.13;4881171;29;20206;-59
2022/10/05 02:50:57;;;;;;;9.20;7.17;;;15.90;73.50;;;18.43;54.45;101483.69;4880827;29;20215;-59
2022/10/05 02:53:34;;;;;;;10.33;7.17;;;15.90;73.50;;;18.44;54.62;101482.69;4894591;29;20294;-58
2022/10/05 02:56:17;;;;;;;7.90;6.97;;;15.90;73.60;;;18.44;54.79;101480.00;4907986;29;20349;-58
2022/10/05 02:58:58;;;;;;;7.43;6.27;;;15.90;73.80;;;18.43;54.69;101478.38;4918888;29;20231;-57
2022/10/05 03:01:36;;;;;;;10.10;6.93;;;15.90;73.70;;;18.43;54.86;101477.53;4918475;29;20802;-60
2022/10/05 03:04:20;;;;;;;11.70;6.93;;;15.90;73.80;;;18.42;55.01;101471.41;4918216;29;20245;-60
2022/10/05 03:07:03;;;;;;;10.40;7.20;;;15.90;73.90;;;18.37;55.19;101462.38;4903613;29;20202;-58
2022/10/05 03:09:53;;;;;;;11.07;6.77;;;15.90;74.00;;;18.36;55.12;101477.56;4904627;29;20255;-60
2022/10/05 03:12:46;;;;;;;10.27;6.97;;;15.90;74.00;;;18.33;55.48;101466.50;4918926;29;20250;-60
2022/10/05 03:15:42;;;;;;;10.23;7.07;;;15.90;74.20;;;18.36;55.54;101466.06;4921708;29;20246;-60
2022/10/05 03:18:22;;;;;;;9.50;7.10;;;15.90;74.30;;;18.38;55.49;101459.50;4918295;29;20210;-60
2022/10/05 03:21:16;;;;;;;10.40;7.67;;;15.90;74.30;;;18.41;55.45;101453.75;4917761;29;20214;-60
2022/10/05 03:24:06;;;;;;;7.53;6.73;;;15.90;74.40;;;18.43;55.33;101454.38;4899056;29;20263;-59
2022/10/05 03:26:48;;;;;;;8.33;7.30;;;16.00;74.50;;;18.45;55.37;101446.97;4911391;29;20564;-59
2022/10/05 03:29:33;;;;;;;11.23;7.57;;;15.90;74.50;;;18.42;55.43;101439.41;4907469;29;20199;-58
2022/10/05 03:32:14;;;;;;;9.17;5.80;;;16.00;74.70;;;18.47;55.32;101446.81;4898383;29;20300;-58
2022/10/05 03:34:51;;;;;;;11.93;7.10;;;16.00;74.50;;;18.51;55.38;101448.84;4899026;29;20210;-58
2022/10/05 03:37:28;;;;;;;8.83;7.77;;;16.00;74.70;;;18.53;55.25;101457.47;4899242;29;20203;-56
2022/10/05 03:40:08;;;;;;;8.70;7.37;;;16.00;74.70;;;18.55;55.26;101460.72;4888375;29;20248;-60
2022/10/05 03:42:52;;;;;;;11.80;8.00;;;16.00;74.70;;;18.56;55.54;101456.22;4879991;29;20211;-59
2022/10/05 03:45:29;;;;;;;8.40;7.50;;;16.00;74.80;;;18.56;55.31;101459.72;4880307;29;20218;-58
2022/10/05 03:48:07;;;;;;;8.10;7.17;;;16.00;74.80;;;18.55;55.32;101460.72;4880828;29;20241;-59
2022/10/05 03:50:49;;;;;;;9.20;7.73;;;16.00;74.70;;;18.56;55.37;101451.72;4879835;29;20240;-55
2022/10/05 03:53:21;;;;;;;8.60;7.70;;;16.10;74.90;;;18.63;55.40;101452.53;4892268;29;20274;-58
2022/10/05 03:55:59;;;;;;;9.37;7.63;;;16.10;74.90;;;18.64;55.27;101448.81;4905271;29;20589;-59
2022/10/05 03:58:39;;;;;;;10.97;7.57;;;16.10;75.00;;;18.65;55.31;101439.78;4917360;29;20686;-59
2022/10/05 04:01:14;;;;;;;9.73;7.87;;;16.10;75.10;;;18.69;55.23;101437.50;4916977;29;20222;-58
2022/10/05 04:03:46;;;;;;;9.40;8.40;;;16.10;75.10;;;18.70;55.28;101444.50;4917352;29;20265;-59
2022/10/05 04:06:21;;;;;;;12.17;7.93;;;16.10;75.10;;;18.73;55.32;101442.22;4915142;29;20202;-58
2022/10/05 04:08:56;;;;;;;10.20;8.03;;;16.10;75.10;;;18.70;55.64;101437.31;4916854;29;20584;-58
2022/10/05 04:11:31;;;;;;;8.07;7.07;;;16.20;75.40;;;18.74;55.56;101438.53;4905447;29;20207;-59
2022/10/05 04:14:09;;;;;;;10.97;8.90;;;16.10;75.10;;;18.75;55.32;101439.34;4898136;29;20570;-61
2022/10/05 04:16:44;;;;;;;10.93;7.93;;;16.10;75.30;;;18.74;55.56;101430.53;4897969;29;20180;-58
2022/10/05 04:19:20;;;;;;;10.07;7.80;;;16.20;75.30;;;18.74;55.48;101438.53;4898076;29;20659;-59
2022/10/05 04:21:52;;;;;;;10.77;8.30;;;16.20;75.40;;;18.75;55.68;101434.84;4897674;29;20199;-60
2022/10/05 04:24:31;;;;;;;10.23;8.23;;;16.20;75.50;;;18.68;55.87;101433.22;4898259;29;20231;-58
2022/10/05 04:27:10;;;;;;;9.47;8.20;;;16.20;75.60;;;18.68;56.00;101434.03;4913379;29;20202;-60
2022/10/05 04:29:47;;;;;;;10.97;8.13;;;16.20;75.60;;;18.65;56.02;101434.44;4903350;29;20206;-58
2022/10/05 04:32:34;;;;;;;11.90;9.10;;;16.20;75.70;;;18.57;56.14;101429.34;4897260;29;20218;-59
2022/10/05 04:35:30;;;;;;;8.73;7.57;;;16.10;75.80;;;18.57;56.20;101431.19;4897216;29;20289;-58
2022/10/05 04:38:14;;;;;;;13.53;8.43;;;16.20;75.80;;;18.56;56.34;101427.72;4897775;29;20575;-60
2022/10/05 04:41:00;;;;;;;10.60;8.70;;;16.10;76.00;;;18.55;56.57;101427.91;4886082;29;20223;-59
2022/10/05 04:43:46;;;;;;;11.40;8.47;;;16.10;76.20;;;18.55;56.41;101434.06;4897726;29;20507;-59
2022/10/05 04:46:32;;;;;;;9.00;7.97;;;16.10;76.30;;;18.52;56.67;101425.69;4897533;29;20210;-59
2022/10/05 04:49:29;;;;;;;9.70;8.67;;;16.10;76.40;;;18.45;56.91;101417.66;4897439;29;20187;-58
2022/10/05 04:52:34;;;;;;;13.37;10.03;;;16.00;76.60;;;18.45;56.82;101420.31;4897061;29;20216;-57
2022/10/05 04:55:27;;;;;;;12.40;9.10;;;16.00;76.60;;;18.39;57.23;101417.66;4897797;29;20560;-60
2022/10/05 04:58:11;;;;;;;13.20;8.90;;;16.00;77.00;;;18.39;57.03;101417.66;4916644;29;20187;-61
2022/10/05 05:00:59;;;;;;;11.87;9.20;;;16.00;77.00;;;18.41;57.31;101420.94;4916780;29;20230;-60
2022/10/05 05:03:56;;;;;;;13.13;9.77;;;15.90;77.10;;;18.40;56.85;101417.44;4916841;29;20740;-60
2022/10/05 05:06:37;;;;;;;14.23;10.10;;;15.90;77.10;;;18.42;57.12;101422.59;4904072;29;20211;-59
2022/10/05 05:09:48;;;;;;;12.70;10.17;;;15.90;77.10;;;18.38;57.30;101416.03;4897595;29;20203;-58
2022/10/05 05:12:29;;;;;;;11.53;9.53;;;15.90;77.30;;;18.39;57.20;101417.66;4897083;29;20218;-57
2022/10/05 05:15:23;;;;;;;12.20;8.83;;;15.90;77.40;;;18.34;57.33;101418.31;4898052;29;20207;-59
2022/10/05 05:18:36;;;;;;;10.73;8.97;;;15.90;77.50;;;18.31;57.54;101416.03;4897276;29;20283;-59
2022/10/05 05:21:16;;;;;;;13.17;10.63;;;15.90;78.30;;;18.36;57.46;101415.41;4897353;29;20215;-58
2022/10/05 05:23:56;;;;;;;14.40;10.17;;;15.90;77.60;;;18.34;57.54;101412.97;4897817;29;20222;-60
2022/10/05 05:26:40;;;;;;;11.60;9.50;;;15.90;77.90;;;18.34;57.53;101407.63;4908833;29;20236;-59
2022/10/05 05:29:20;;;;;;;12.97;10.33;;;15.90;77.90;;;18.32;57.48;101412.38;4909022;29;20227;-59
2022/10/05 05:31:59;;;;;;;12.30;10.03;;;15.80;77.80;;;18.33;57.61;101408.66;4900334;29;20186;-60
2022/10/05 05:34:57;;;;;;;11.27;10.07;;;15.80;77.80;;;18.31;57.53;101400.06;4900980;29;20254;-59
2022/10/05 05:37:35;;;;;;;13.67;10.67;;;15.80;77.90;;;18.32;57.52;101412.38;4901117;29;20195;-59
2022/10/05 05:40:14;;;;;;;11.07;9.07;;;15.80;78.00;;;18.31;57.69;101404.56;4888718;29;20332;-59
2022/10/05 05:42:56;;;;;;;16.43;10.50;;;15.80;78.00;;;18.30;57.77;101409.09;4900515;29;20631;-60
2022/10/05 05:45:38;;;;;;;17.13;11.20;;;15.80;78.10;;;18.29;57.77;101404.78;4901069;29;20195;-59
2022/10/05 05:48:17;;;;;;;13.37;10.67;;;15.80;78.10;;;18.31;57.74;101401.88;4900724;29;20250;-57
2022/10/05 05:50:58;;;;;;;15.53;11.20;;;15.80;78.10;;;18.27;57.90;101401.50;4900699;29;20222;-59
2022/10/05 05:53:34;;;;;;;11.73;9.83;;;15.80;79.00;;;18.32;57.78;101396.38;4899924;29;20235;-59
2022/10/05 05:56:10;;;;;;;18.20;11.33;;;15.80;79.00;;;18.33;57.84;101397.19;4908671;29;20205;-58
2022/10/05 05:58:47;;;;;;;11.47;10.27;;;15.80;78.30;;;18.39;57.69;101391.00;4919024;29;20238;-58
2022/10/05 06:01:23;;;;;;;12.97;11.13;;;15.80;78.30;;;18.34;57.68;101399.63;4918969;29;20222;-60
2022/10/05 06:04:09;;;;;;;12.43;10.80;;;15.80;78.40;;;18.35;57.78;101395.13;4907601;29;20340;-59
2022/10/05 06:06:45;;;;;;;12.80;10.87;;;15.90;78.40;;;18.35;57.94;101385.28;4900244;29;20191;-60
2022/10/05 06:09:21;;;;;;;15.50;10.77;;;15.90;78.40;;;18.36;58.00;101386.91;4900192;29;20203;-59
2022/10/05 06:11:54;;;;;;;11.83;10.13;;;15.90;78.50;;;18.38;58.05;101384.84;4899962;29;20506;-59
2022/10/05 06:14:31;;;;;;;14.23;11.47;;;15.90;78.50;;;18.37;58.03;101377.91;4900078;29;20611;-60
2022/10/05 06:17:06;;;;;;;11.37;10.17;;;15.90;78.50;;;18.37;57.98;101383.25;4900842;29;20195;-59
2022/10/05 06:19:36;;;;;;;12.70;10.63;;;15.90;78.50;;;18.42;58.11;101380.75;4901415;29;20707;-59
2022/10/05 06:22:17;;;;;;;11.87;9.63;;;15.90;78.50;;;18.41;58.01;101379.13;4902915;29;20226;-59
2022/10/05 06:25:02;;;;;;;14.57;10.50;;;15.90;78.50;;;18.43;57.90;101384.22;4900521;29;20199;-59
2022/10/05 06:27:38;;;;;;;15.80;10.87;;;15.90;78.50;;;18.50;57.79;101377.06;4881444;29;20173;-60
2022/10/05 06:30:10;;;;;;;13.57;10.67;;;16.00;78.50;;;18.47;57.82;101393.50;4897997;29;20262;-58
2022/10/05 06:33:14;;;;;;;10.17;9.07;;;16.00;78.50;;;18.47;57.74;101388.97;4899398;29;20234;-58
2022/10/05 06:35:59;;;;;;;12.30;9.93;;;16.00;78.40;;;18.51;57.79;101390.19;4900220;29;20195;-58
2022/10/05 06:39:01;;;;;;;12.70;10.27;;;16.00;78.40;;;18.55;57.81;101394.06;4899376;29;20199;-60
2022/10/05 06:41:45;;;;;;;12.70;9.40;;;16.10;78.40;;;18.60;57.66;101394.25;4892955;29;20293;-57
2022/10/05 06:44:22;;;;;;;12.27;9.70;;;16.10;78.30;;;18.62;57.56;101397.53;4899935;29;20266;-61
2022/10/05 06:47:01;;;;;;;12.00;10.77;;;16.10;78.30;;;18.64;57.47;101387.47;4899553;29;20179;-56
2022/10/05 06:49:39;;;;;;;13.40;10.63;;;16.20;78.40;;;18.67;57.80;101372.91;4899792;29;20226;-60
2022/10/05 06:52:24;;;;;;;13.80;10.17;;;16.20;78.30;;;18.66;57.82;101382.72;4899146;29;20215;-60
2022/10/05 06:55:10;;;;;;;11.97;9.57;;;16.20;78.40;;;18.71;57.56;101374.91;4906731;29;20597;-56
2022/10/05 06:57:58;;;;;;;10.50;9.43;;;16.20;78.20;;;18.79;57.29;101388.03;4899691;29;20187;-59
2022/10/05 07:00:37;;;;;;;13.33;10.30;;;16.30;78.20;;;18.86;57.35;101383.47;4899303;29;20711;-59
2022/10/05 07:03:20;;;;;;;12.37;9.67;;;16.30;78.20;;;18.86;57.18;101380.81;4899515;29;20234;-60
2022/10/05 07:06:09;;;;;;;12.97;9.73;;;16.30;78.00;;;18.82;57.56;101387.63;4900016;29;20545;-56
2022/10/05 07:08:58;;;;;;;13.67;9.60;;;16.40;78.10;;;18.84;57.40;101401.56;4898892;29;20192;-59
2022/10/05 07:11:52;;;;;;;10.87;9.77;;;16.40;78.00;;;18.94;57.21;101407.22;4899316;29;20195;-60
2022/10/05 07:14:48;;;;;;;12.03;10.17;;;16.40;78.00;;;18.97;56.95;101413.19;4899157;29;20191;-56
2022/10/05 07:17:35;;;;;;;10.97;8.73;;;16.40;77.90;;;19.09;56.95;101408.81;4899224;29;20259;-59
2022/10/05 07:20:16;;;;;;;17.87;10.60;;;16.50;77.80;;;19.11;56.65;101406.75;4899510;29;20255;-59
2022/10/05 07:23:03;;;;;;;13.67;9.90;;;16.50;77.70;;;19.17;56.87;101408.56;4899680;29;20231;-60
2022/10/05 07:25:39;;;;;;;12.17;9.97;;;16.60;77.70;;;19.26;56.62;101404.59;4903367;29;20194;-59
2022/10/05 07:28:22;;;;;;;12.63;9.37;;;16.60;77.50;;;19.29;56.40;101398.84;4916636;29;20191;-61
2022/10/05 07:30:59;;;;;;;12.73;9.03;;;16.70;77.50;;;19.42;56.03;101409.47;4898598;29;20583;-58
2022/10/05 07:33:37;;;;;;;9.40;8.50;;;16.70;77.40;;;19.51;55.80;101406.31;4898674;29;20250;-59
2022/10/05 07:39:07;;;;;;;10.47;8.70;;;16.80;77.20;;;19.68;55.52;101416.47;4895463;29;20717;-59
2022/10/05 07:41:43;;;;;;;12.23;10.60;;;16.90;77.00;;;19.67;55.31;101412.97;4891857;29;20270;-59
2022/10/05 07:44:21;;;;;;;10.73;9.03;;;16.90;76.70;;;19.66;55.25;101415.88;4898442;29;20191;-59
2022/10/05 07:46:55;;;;;;;13.50;9.10;;;17.00;76.70;;;19.66;55.36;101422.00;4898661;29;20207;-58
2022/10/05 07:49:38;;;;;;;12.67;9.23;;;17.00;76.50;;;19.67;55.61;101418.31;4898369;29;20214;-58
2022/10/05 07:52:16;;;;;;;9.83;8.60;;;17.00;76.30;;;19.68;55.13;101411.94;4909434;29;20215;-59
2022/10/05 07:55:01;;;;;;;10.03;8.33;;;17.10;76.30;;;19.70;55.11;101412.56;4898380;29;20239;-59
2022/10/05 07:57:43;;;;;;;9.97;7.60;;;17.10;76.20;;;19.81;54.98;101419.84;4879799;29;20596;-60
2022/10/05 08:00:19;;;;;;;9.87;8.43;;;17.10;76.10;;;19.84;54.89;101411.41;4879621;29;20211;-57
2022/10/05 08:02:54;;;;;;;8.77;7.73;;;17.20;76.20;;;19.83;55.39;101412.44;4879055;29;20227;-58
2022/10/05 08:05:28;;;;;;;9.77;8.77;;;17.20;76.00;;;19.82;54.80;101418.81;4883434;29;20202;-60
2022/10/05 08:08:05;;;;;;;10.10;8.10;;;17.20;75.80;;;19.83;54.90;101417.78;4893832;29;20223;-60
2022/10/05 08:10:42;;;;;;;9.80;8.27;;;17.20;75.60;;;19.93;55.08;101423.44;4898731;29;20217;-59
2022/10/05 08:13:18;;;;;;;9.60;8.00;;;17.30;75.50;;;20.03;54.48;101418.44;4887083;29;20226;-59
2022/10/05 08:15:54;;;;;;;9.13;7.60;;;17.40;75.50;;;20.20;54.19;101424.84;4898517;29;20270;-57
2022/10/05 08:18:48;;;;;;;7.97;6.80;;;17.50;75.30;;;20.24;53.89;101415.38;4892596;29;20309;-61
2022/10/05 08:21:23;;;;;;;9.23;7.03;;;17.50;74.90;;;20.27;54.02;101419.47;4896947;29;20253;-58
2022/10/05 08:23:57;;;;;;;10.47;7.53;;;17.60;74.60;;;20.41;54.04;101414.78;4895107;29;20226;-61
2022/10/05 08:26:37;;;;;;;7.83;7.10;;;17.60;74.60;;;20.54;53.04;101422.69;4907635;29;20607;-58
2022/10/05 08:29:18;;;;;;;9.13;7.30;;;17.70;74.40;;;20.61;52.78;101421.53;4889259;29;20208;-57
2022/10/05 08:31:54;;;;;;;10.37;8.00;;;17.80;74.00;;;20.65;53.04;101416.56;4896856;29;20270;-59
2022/10/05 08:34:29;;;;;;;8.03;7.23;;;17.80;73.30;;;20.62;52.52;101411.66;4897610;29;20215;-58
2022/10/05 08:37:03;;;;;;;8.40;7.27;;;17.90;73.10;;;20.61;52.80;101410.84;4897708;29;20225;-58
2022/10/05 08:39:39;;;;;;;7.90;6.57;;;17.80;72.90;;;20.63;52.43;101407.97;4896981;29;20195;-59
2022/10/05 08:42:46;;;;;;;7.70;6.90;;;17.90;73.00;;;20.59;52.79;101409.44;4893653;29;20242;-59
2022/10/05 08:45:45;;;;;;;9.07;6.53;;;18.00;73.10;;;20.68;52.23;101406.22;4894886;29;20231;-60
2022/10/05 08:49:08;;;;;;;9.20;7.50;;;18.00;72.80;;;20.59;52.60;101412.09;4876922;29;20215;-60
2022/10/05 08:52:33;;;;;;;9.40;6.70;;;18.00;72.50;;;20.58;52.72;101399.78;4886350;29;20200;-59
2022/10/05 08:55:33;;;;;;;8.43;7.10;;;18.10;73.30;;;20.60;52.81;101403.03;4892736;29;20219;-60
2022/10/05 08:58:56;;;;;;;9.27;7.60;;;18.10;72.60;;;20.50;52.92;101408.91;4894738;29;20217;-60
2022/10/05 09:01:49;;;;;;;8.63;6.43;;;18.10;72.50;;;20.62;52.85;101409.81;4890778;29;20689;-59
2022/10/05 09:04:42;;;;;;;8.27;6.70;;;18.20;72.70;;;20.68;53.00;101416.94;4896010;29;20207;-61
2022/10/05 09:07:32;;;;;;;7.33;6.63;;;18.20;72.60;;;20.68;52.47;101408.91;4891681;29;20662;-59
2022/10/05 09:10:50;;;;;;;8.67;7.17;;;18.20;72.40;;;20.62;53.04;101404.47;4896220;29;20294;-61
2022/10/05 09:14:09;;;;;;;6.70;6.10;;;18.20;72.40;;;20.69;52.58;101402.53;4887290;29;20282;-60
2022/10/05 09:17:18;;;;;;;7.77;6.33;;;18.20;72.20;;;20.71;51.60;101405.78;4888938;29;20616;-59
2022/10/05 09:20:16;;;;;;;7.20;5.67;;;18.20;71.30;;;20.76;51.81;101397.91;4895035;29;20246;-59
2022/10/05 09:23:09;;;;;;;6.53;5.83;;;18.20;71.20;;;20.74;51.49;101394.63;4895451;29;20242;-58
2022/10/05 09:25:58;;;;;;;6.97;6.37;;;18.20;70.80;;;20.55;51.99;101411.75;4899025;29;20295;-60
2022/10/05 09:28:38;;;;;;;7.90;5.53;;;18.10;70.50;;;20.62;51.96;101401.78;4892261;29;20203;-59
2022/10/05 09:31:36;;;;;;;7.50;6.67;;;18.10;70.50;;;20.67;51.67;101398.44;4890200;29;20720;-60
2022/10/05 09:34:55;;;;;;;7.83;6.37;;;18.10;70.40;;;20.71;50.71;101391.59;4894479;29;20239;-59
2022/10/05 09:37:58;;;;;;;6.37;5.57;;;18.20;70.20;;;20.74;50.99;101388.47;4893390;29;20215;-59
2022/10/05 09:41:35;;;;;;;5.50;5.00;;;18.20;70.10;;;20.86;51.20;101397.38;4892716;29;20291;-61
2022/10/05 09:44:49;;;;;;;7.47;6.20;;;18.20;70.30;;;20.94;50.71;101378.34;4869494;29;20291;-60
2022/10/05 09:48:20;;;;;;;7.20;5.87;;;18.30;69.80;;;20.90;50.68;101387.84;4896669;29;20247;-60
2022/10/05 09:51:18;;;;;;;7.20;5.57;;;18.30;69.60;;;20.88;50.64;101381.91;4855329;29;20208;-62
2022/10/05 09:54:45;;;;;;;5.63;5.13;;;18.30;69.30;;;21.00;50.31;101377.41;4897710;29;20886;-60
2022/10/05 09:58:07;;;;;;;6.23;5.43;;;18.40;69.30;;;21.07;50.04;101372.81;4895501;29;20195;-60
2022/10/05 10:01:04;;;;;;;7.00;5.00;;;18.40;69.10;;;21.08;49.54;101363.75;4892655;29;20227;-60
2022/10/05 10:04:37;;;;;;;6.07;5.47;;;18.50;68.70;;;21.01;50.07;101363.00;4890358;29;20764;-60
2022/10/05 10:07:35;;;;;;;5.67;4.73;;;18.50;68.50;;;20.94;49.72;101378.34;4888280;29;20677;-62
2022/10/05 10:10:57;;;;;;;6.57;5.10;;;18.50;68.30;;;20.93;49.85;101371.34;4893215;29;20191;-59
2022/10/05 10:14:14;;;;;;;5.60;4.63;;;18.50;69.00;;;20.83;50.23;101365.69;4891270;29;20733;-59
2022/10/05 10:17:31;;;;;;;5.50;4.60;;;18.40;68.20;;;20.94;49.78;101362.28;4896137;29;20748;-60
2022/10/05 10:20:33;;;;;;;5.03;4.20;;;18.50;68.60;;;20.99;49.91;101354.34;4892977;29;20259;-59
2022/10/05 10:23:27;;;;;;;5.03;4.53;;;18.50;68.50;;;21.05;49.66;101353.47;4891029;29;20289;-59
2022/10/05 10:26:50;;;;;;;7.30;5.10;;;18.50;68.50;;;21.07;49.94;101355.94;4894135;29;20203;-59
2022/10/05 10:29:46;;;;;;;6.53;4.27;;;18.50;68.40;;;21.11;49.86;101349.88;4893139;29;20251;-60
2022/10/05 10:32:42;;;;;;;4.43;4.03;;;18.50;68.00;;;21.26;49.26;101333.38;4897574;29;20227;-59
2022/10/05 10:35:31;;;;;;;4.13;3.83;;;18.60;68.20;;;21.32;49.08;101324.44;4890742;29;20224;-60
2022/10/05 10:38:29;;;;;;;5.07;4.57;;;18.70;68.00;;;21.34;49.22;101314.31;4890724;29;20218;-59
2022/10/05 10:41:26;;;;;;;6.03;4.03;;;18.70;67.50;;;21.45;49.32;101318.88;4894296;29;20315;-59
2022/10/05 10:44:46;;;;;;;4.93;3.90;;;18.80;67.80;;;21.66;48.29;101317.47;4885530;29;20812;-59
2022/10/05 10:47:50;;;;;;;3.90;3.60;;;18.90;67.40;;;21.84;48.19;101314.69;4893952;29;20251;-59
2022/10/05 10:51:12;;;;;;;4.20;3.80;;;19.00;66.80;;;22.05;47.48;101306.88;4886294;29;20215;-58
2022/10/05 10:54:24;;;;;;;7.70;4.50;;;19.20;66.50;;;22.11;47.42;101303.25;4896492;29;20303;-59
2022/10/05 10:57:06;;;;;;;5.80;3.63;;;19.30;65.90;;;22.03;47.25;101306.31;4894946;29;20215;-61
2022/10/05 11:00:18;;;;;;;4.87;3.60;;;19.40;65.70;;;22.16;47.49;101307.91;4880656;29;20180;-60
2022/10/05 11:03:59;;;;;;;3.87;3.57;;;19.50;65.70;;;22.39;47.16;101305.16;4891223;29;20581;-60
2022/10/05 11:07:19;;;;;;;3.87;3.57;;;19.60;65.50;;;22.48;46.26;101298.38;4865688;29;20219;-58
2022/10/05 11:10:31;;;;;;;3.17;2.87;;;19.60;64.60;;;22.51;46.39;101289.03;4850567;29;20216;-61
2022/10/05 11:13:35;;;;;;;4.00;3.40;;;19.70;64.40;;;22.55;46.53;101287.47;4829877;29;20235;-63
2022/10/05 11:16:28;;;;;;;4.90;3.13;;;19.80;64.60;;;22.64;46.13;101289.56;4891330;29;20219;-60
2022/10/05 11:19:31;;;;;;;6.33;3.50;;;19.90;64.40;;;22.66;45.90;101282.09;4894742;29;20208;-60
2022/10/05 11:22:56;;;;;;;3.80;3.13;;;19.90;64.00;;;22.63;46.15;101281.78;4891658;29;20279;-61
2022/10/05 11:25:52;;;;;;;3.53;3.23;;;20.00;63.90;;;22.51;46.04;101280.97;4893920;29;20266;-61
2022/10/05 11:29:01;;;;;;;4.03;3.17;;;20.00;63.40;;;22.41;46.61;101283.47;4889780;29;20203;-59
2022/10/05 11:32:32;;;;;;;3.50;3.20;;;20.00;63.50;;;22.27;46.31;101263.31;4889390;29;20251;-61